< < Back
Terminal Aerodrome Forecast


Current Version              Previous Versions:   1  2  3  4  5  6  7  8  9  

Terminal Aerodrome Forecast

748
FTUS42 KFFC 280531
TAFMCN
TAF
KMCN 280531Z 2806/2906 13004KT P6SM SCT250
     FM281700 09006KT P6SM FEW050
     FM290000 09004KT P6SM SCT250=



Latest METAR

415
SAUS80 KWBC 280800 RRE
MTRMCN
METAR KMCN 280853Z AUTO 00000KT 10SM CLR 16/15 A3008 RMK AO2 SLP182
T01610150 55001 TSNO


USA.gov is the U.S. government's official web portal to all federal, state and local government web resources and services.